createdAt,value
2019-04-04T00:03:32.587Z,19.20
2019-04-04T00:07:36.292Z,19.20
2019-04-04T00:11:39.979Z,19.20
2019-04-04T00:15:45.389Z,19.20
2019-04-04T00:19:49.220Z,19.20
2019-04-04T00:23:52.868Z,19.20
2019-04-04T00:27:57.262Z,19.20
2019-04-04T00:32:01.017Z,19.20
2019-04-04T00:36:04.679Z,19.20
2019-04-04T00:40:10.920Z,19.20
2019-04-04T00:44:13.795Z,19.20
2019-04-04T00:48:17.522Z,19.20
2019-04-04T00:52:21.078Z,19.30
2019-04-04T00:56:24.633Z,19.20
2019-04-04T01:00:28.593Z,19.20
2019-04-04T01:04:32.262Z,19.20
2019-04-04T01:08:38.090Z,19.20
2019-04-04T01:12:41.281Z,19.20
2019-04-04T01:16:45.000Z,19.20
2019-04-04T01:20:50.433Z,19.20
2019-04-04T01:24:54.211Z,19.20
2019-04-04T01:28:57.906Z,19.20
2019-04-04T01:33:03.653Z,19.20
2019-04-04T01:37:07.557Z,19.20
2019-04-04T01:41:11.072Z,19.20
2019-04-04T01:45:14.973Z,19.20
2019-04-04T01:49:21.199Z,19.20
2019-04-04T01:53:25.304Z,19.20
2019-04-04T01:57:28.918Z,19.20
2019-04-04T02:01:32.805Z,19.20
2019-04-04T02:05:36.445Z,19.20
2019-04-04T02:09:43.223Z,19.20
2019-04-04T02:13:46.246Z,19.20
2019-04-04T02:17:52.658Z,19.20
2019-04-04T02:21:55.658Z,19.20
2019-04-04T02:26:00.319Z,19.20
2019-04-04T02:30:04.194Z,19.20
2019-04-04T02:34:07.824Z,19.20
2019-04-04T02:38:11.483Z,19.20
2019-04-04T02:42:15.369Z,19.20
2019-04-04T02:46:19.099Z,19.20
2019-04-04T02:50:22.884Z,19.20
2019-04-04T02:54:26.510Z,19.20
2019-04-04T02:58:30.536Z,19.20
2019-04-04T03:02:36.243Z,19.20
2019-04-04T03:06:40.039Z,19.20
2019-04-04T03:10:47.873Z,19.20
2019-04-04T03:14:50.863Z,19.20
2019-04-04T03:18:54.844Z,19.20
2019-04-04T03:23:00.531Z,19.20
2019-04-04T03:27:04.813Z,19.20
2019-04-04T03:31:08.485Z,19.20
2019-04-04T03:35:12.112Z,19.10
2019-04-04T03:39:19.262Z,19.20
2019-04-04T03:43:21.410Z,19.20
2019-04-04T03:47:26.171Z,19.20
2019-04-04T03:51:29.767Z,19.20
2019-04-04T03:55:33.670Z,19.20
2019-04-04T03:59:37.279Z,19.20
2019-04-04T04:03:40.918Z,19.20
2019-04-04T04:07:45.860Z,19.20
2019-04-04T04:11:50.086Z,19.20
2019-04-04T04:15:54.130Z,19.10
2019-04-04T04:19:57.883Z,19.20
2019-04-04T04:24:01.537Z,19.20
2019-04-04T04:28:05.171Z,19.20
2019-04-04T04:32:08.847Z,19.20
2019-04-04T04:36:15.363Z,19.10
2019-04-04T04:40:18.095Z,19.20
2019-04-04T04:44:22.036Z,19.20
2019-04-04T04:48:26.170Z,19.20
2019-04-04T04:52:30.111Z,19.20
2019-04-04T04:56:33.840Z,19.20
2019-04-04T05:00:37.550Z,19.20
2019-04-04T05:04:41.251Z,19.20
2019-04-04T05:08:44.914Z,19.20
2019-04-04T05:12:48.607Z,19.20
2019-04-04T05:16:52.258Z,19.20
2019-04-04T05:20:57.539Z,19.10
2019-04-04T05:25:08.119Z,19.20
2019-04-04T05:29:06.869Z,19.10
2019-04-04T05:33:10.481Z,19.10
2019-04-04T05:37:14.154Z,19.10
2019-04-04T05:41:17.958Z,19.10
2019-04-04T05:45:21.589Z,19.10
2019-04-04T05:49:25.785Z,19.10
2019-04-04T05:53:29.495Z,19.10
2019-04-04T05:57:33.361Z,19.10
2019-04-04T06:01:37.107Z,19.10
2019-04-04T06:05:40.751Z,19.10
2019-04-04T06:09:46.924Z,19.10
2019-04-04T06:13:50.019Z,19.10
2019-04-04T06:17:53.696Z,19.10
2019-04-04T06:21:57.590Z,19.10
2019-04-04T06:26:01.236Z,19.10
2019-04-04T06:30:05.154Z,19.10
2019-04-04T06:34:10.489Z,19.00
2019-04-04T06:38:14.601Z,19.10
2019-04-04T06:42:18.273Z,19.10
2019-04-04T06:46:22.845Z,19.10
2019-04-04T06:50:27.355Z,19.20
2019-04-04T06:54:31.013Z,19.10
2019-04-04T06:58:34.641Z,19.10
2019-04-04T07:02:38.342Z,19.10
2019-04-04T07:06:42.491Z,19.10
2019-04-04T07:10:57.412Z,19.10
2019-04-04T07:14:51.945Z,19.10
2019-04-04T07:18:55.655Z,19.10
2019-04-04T07:22:59.362Z,19.10
2019-04-04T07:27:03.126Z,19.10
2019-04-04T07:31:06.766Z,19.10
2019-04-04T07:35:10.481Z,19.10
2019-04-04T07:39:14.176Z,19.10
2019-04-04T07:43:19.274Z,19.10
2019-04-04T07:47:23.351Z,19.10
2019-04-04T07:51:28.109Z,19.10
2019-04-04T07:55:32.880Z,19.10
2019-04-04T07:59:36.566Z,19.10
2019-04-04T08:03:40.189Z,19.10
2019-04-04T08:07:43.864Z,19.10
2019-04-04T08:11:47.689Z,19.10
2019-04-04T08:15:51.441Z,19.10
2019-04-04T08:19:59.981Z,19.10
2019-04-04T08:24:00.618Z,19.10
2019-04-04T08:28:04.394Z,19.10
2019-04-04T08:32:08.034Z,19.10
2019-04-04T08:36:11.700Z,19.10
2019-04-04T08:40:15.365Z,19.10
2019-04-04T08:44:19.090Z,19.10
2019-04-04T08:48:22.712Z,19.10
2019-04-04T08:52:26.394Z,19.10
2019-04-04T08:56:30.278Z,19.10
2019-04-04T09:00:33.947Z,19.10
2019-04-04T09:04:37.774Z,19.10
2019-04-04T09:08:41.429Z,19.10
2019-04-04T09:12:45.412Z,19.10
2019-04-04T09:16:49.226Z,19.10
2019-04-04T09:20:52.959Z,19.10
2019-04-04T09:24:56.614Z,19.10
2019-04-04T09:29:00.245Z,19.10
2019-04-04T09:33:03.922Z,19.10
2019-04-04T09:37:08.771Z,19.10
2019-04-04T09:41:12.675Z,19.10
2019-04-04T09:45:16.570Z,19.10
2019-04-04T09:49:21.186Z,19.10
2019-04-04T09:53:25.893Z,19.00
2019-04-04T09:57:29.489Z,19.10
2019-04-04T10:01:33.142Z,19.10
2019-04-04T10:05:37.190Z,19.00
2019-04-04T10:09:41.495Z,19.10
2019-04-04T10:13:45.166Z,19.10
2019-04-04T10:17:49.491Z,19.00
2019-04-04T10:21:53.422Z,19.10
2019-04-04T10:25:57.245Z,19.10
2019-04-04T10:30:00.841Z,19.10
2019-04-04T10:34:04.485Z,19.10
2019-04-04T10:38:08.148Z,19.10
2019-04-04T10:42:11.763Z,19.00
2019-04-04T10:46:16.671Z,19.10
2019-04-04T10:50:20.288Z,19.10
2019-04-04T10:54:24.505Z,19.10
2019-04-04T10:58:28.130Z,19.00
2019-04-04T11:02:32.031Z,19.10
2019-04-04T11:06:35.665Z,19.00
2019-04-04T11:10:39.368Z,19.00
2019-04-04T11:14:43.077Z,19.00
2019-04-04T11:18:46.764Z,19.10
2019-04-04T11:22:50.485Z,19.10
2019-04-04T11:26:54.619Z,19.00
2019-04-04T11:30:58.750Z,19.00
2019-04-04T11:35:02.424Z,19.10
2019-04-04T11:39:07.753Z,19.00
2019-04-04T11:43:11.353Z,19.10
2019-04-04T11:47:15.009Z,19.10
2019-04-04T11:51:18.654Z,19.00
2019-04-04T11:55:22.261Z,19.10
2019-04-04T11:59:26.154Z,19.00
2019-04-04T12:03:29.841Z,19.00
2019-04-04T12:07:33.483Z,19.00
2019-04-04T12:11:37.100Z,19.00
2019-04-04T12:15:40.749Z,19.00
2019-04-04T12:19:44.666Z,19.00
2019-04-04T12:23:51.230Z,19.00
2019-04-04T12:27:53.957Z,19.00
2019-04-04T12:31:58.525Z,19.10
2019-04-04T12:36:02.176Z,19.00
2019-04-04T12:40:06.137Z,19.10
2019-04-04T12:44:09.808Z,19.00
2019-04-04T12:48:13.712Z,19.00
2019-04-04T12:52:17.352Z,19.00
2019-04-04T12:56:21.067Z,19.00
2019-04-04T13:00:24.695Z,19.00
2019-04-04T13:04:31.853Z,19.00
2019-04-04T13:08:33.924Z,19.00
2019-04-04T13:12:37.626Z,19.00
2019-04-04T13:16:41.297Z,19.00
2019-04-04T13:20:45.265Z,19.00
2019-04-04T13:24:48.915Z,19.00
2019-04-04T13:28:52.575Z,19.00
2019-04-04T13:32:56.203Z,19.00
2019-04-04T13:37:01.640Z,19.00
2019-04-04T13:41:05.268Z,19.00
2019-04-04T13:45:09.174Z,19.00
2019-04-04T13:49:12.777Z,19.00
2019-04-04T13:53:16.824Z,19.00
2019-04-04T13:57:20.429Z,19.00
2019-04-04T14:01:25.514Z,19.00
2019-04-04T14:05:29.381Z,19.00
2019-04-04T14:09:33.229Z,19.00
2019-04-04T14:13:36.868Z,19.00
2019-04-04T14:17:43.511Z,19.00
2019-04-04T14:21:46.120Z,19.00
2019-04-04T14:25:49.922Z,19.00
2019-04-04T14:29:55.270Z,19.00
2019-04-04T14:33:59.213Z,19.00
2019-04-04T14:38:02.897Z,19.00
2019-04-04T14:42:06.868Z,19.00
2019-04-04T14:46:10.555Z,19.00
2019-04-04T14:50:14.261Z,19.00
2019-04-04T14:54:17.927Z,19.00
2019-04-04T14:58:21.572Z,19.00
2019-04-04T15:02:25.219Z,19.00
2019-04-04T15:06:28.962Z,19.00
2019-04-04T15:10:33.610Z,19.00
2019-04-04T15:14:37.265Z,19.00
2019-04-04T15:18:40.988Z,19.00
2019-04-04T15:22:44.656Z,19.00
2019-04-04T15:26:48.338Z,19.00
2019-04-04T15:30:52.979Z,19.00
2019-04-04T15:34:57.110Z,19.00
2019-04-04T15:39:01.149Z,19.00
2019-04-04T15:43:06.674Z,19.00
2019-04-04T15:47:10.554Z,19.00
2019-04-04T15:51:14.476Z,19.00
2019-04-04T15:55:18.134Z,19.00
2019-04-04T15:59:22.089Z,19.00
2019-04-04T16:03:25.746Z,18.90
2019-04-04T16:07:31.160Z,19.00
2019-04-04T16:11:34.899Z,19.00
2019-04-04T16:15:38.612Z,19.00
2019-04-04T16:19:42.321Z,19.00
2019-04-04T16:23:46.030Z,19.00
2019-04-04T16:27:49.790Z,19.00
2019-04-04T16:31:53.517Z,19.00
2019-04-04T16:35:57.213Z,19.00
2019-04-04T16:40:08.983Z,19.00
2019-04-04T16:44:06.681Z,18.90
2019-04-04T16:48:10.638Z,18.90
2019-04-04T16:52:14.249Z,19.00
2019-04-04T16:56:17.932Z,19.00
2019-04-04T17:00:21.643Z,18.90
2019-04-04T17:04:25.460Z,19.00
2019-04-04T17:08:29.196Z,19.00
2019-04-04T17:12:32.924Z,19.00
2019-04-04T17:16:36.741Z,19.00
2019-04-04T17:20:40.478Z,18.90
2019-04-04T17:24:44.161Z,18.90
2019-04-04T17:28:47.970Z,18.90
2019-04-04T17:32:52.026Z,18.90
2019-04-04T17:36:56.386Z,19.00
2019-04-04T17:41:00.245Z,18.90
2019-04-04T17:45:04.916Z,19.00
2019-04-04T17:49:09.129Z,19.00
2019-04-04T17:53:13.204Z,18.90
2019-04-04T17:57:19.048Z,18.90
2019-04-04T18:01:22.762Z,19.00
2019-04-04T18:05:26.469Z,18.90
2019-04-04T18:09:31.899Z,18.90
2019-04-04T18:13:35.965Z,19.00
2019-04-04T18:17:39.814Z,19.00
2019-04-04T18:21:43.840Z,19.00
2019-04-04T18:25:47.682Z,19.00
2019-04-04T20:45:06.348Z,25.20
2019-04-04T20:49:13.522Z,21.80
2019-04-04T20:53:22.251Z,20.70
2019-04-04T20:57:29.485Z,20.40
2019-04-04T21:01:36.598Z,20.30
2019-04-04T21:05:43.686Z,20.20
2019-04-04T21:09:50.909Z,20.20
2019-04-04T21:13:58.001Z,20.10
2019-04-04T21:18:05.134Z,20.00
2019-04-04T21:22:12.227Z,20.00
2019-04-04T21:26:19.804Z,20.00
2019-04-04T21:30:27.068Z,20.00
2019-04-04T21:34:34.135Z,20.00
2019-04-04T21:38:41.308Z,19.90
2019-04-04T21:42:48.394Z,19.90
2019-04-04T21:46:55.484Z,19.90
2019-04-04T21:51:02.966Z,19.80
2019-04-04T21:55:10.025Z,19.80
2019-04-04T21:59:17.165Z,19.80
2019-04-04T22:03:24.423Z,19.80
2019-04-04T22:07:31.557Z,19.80
2019-04-04T22:11:38.787Z,19.80
2019-04-04T22:15:46.337Z,19.80
2019-04-04T22:19:53.452Z,19.70
2019-04-04T22:24:00.543Z,19.70
2019-04-04T22:28:07.627Z,19.70
2019-04-04T22:32:14.684Z,19.70
2019-04-04T22:36:21.976Z,19.70
2019-04-04T22:40:29.004Z,19.70
2019-04-04T22:44:36.095Z,19.70
2019-04-04T22:48:43.857Z,19.70
2019-04-04T22:52:50.871Z,19.70
2019-04-04T22:56:58.240Z,19.60
2019-04-04T23:01:05.314Z,19.70
2019-04-04T23:05:12.984Z,19.70
2019-04-04T23:09:20.114Z,19.70
2019-04-04T23:13:27.470Z,19.70
2019-04-04T23:17:34.484Z,19.70
2019-04-04T23:21:41.770Z,19.60
2019-04-04T23:25:48.898Z,19.70
2019-04-04T23:29:55.962Z,19.70
2019-04-04T23:34:02.998Z,19.70
2019-04-04T23:38:10.380Z,19.70
2019-04-04T23:42:17.422Z,19.70
2019-04-04T23:46:24.859Z,19.60
2019-04-04T23:50:31.920Z,19.60
2019-04-04T23:54:38.971Z,19.70
2019-04-04T23:58:46.108Z,19.60
